sensor_id;sensor_type;location;lat;lon;timestamp;temperature;humidity
43151;DHT22;28755;51.478;5.702;2022-07-05T00:02:23;17.60;99.90
43151;DHT22;28755;51.478;5.702;2022-07-05T00:04:48;17.40;99.90
43151;DHT22;28755;51.478;5.702;2022-07-05T00:07:16;17.50;99.90
43151;DHT22;28755;51.478;5.702;2022-07-05T00:09:46;17.40;99.90
43151;DHT22;28755;51.478;5.702;2022-07-05T00:12:12;17.30;99.90
43151;DHT22;28755;51.478;5.702;2022-07-05T00:14:39;17.20;99.90
43151;DHT22;28755;51.478;5.702;2022-07-05T00:17:05;17.10;99.90
43151;DHT22;28755;51.478;5.702;2022-07-05T00:19:30;17.10;99.90
43151;DHT22;28755;51.478;5.702;2022-07-05T00:21:56;17.10;99.90
43151;DHT22;28755;51.478;5.702;2022-07-05T00:24:23;17.00;99.90
43151;DHT22;28755;51.478;5.702;2022-07-05T00:26:48;16.90;99.90
43151;DHT22;28755;51.478;5.702;2022-07-05T00:29:14;16.80;99.90
43151;DHT22;28755;51.478;5.702;2022-07-05T00:31:39;16.90;99.90
43151;DHT22;28755;51.478;5.702;2022-07-05T00:34:05;16.80;99.90
43151;DHT22;28755;51.478;5.702;2022-07-05T00:36:31;16.80;99.90
43151;DHT22;28755;51.478;5.702;2022-07-05T00:38:56;16.60;99.90
43151;DHT22;28755;51.478;5.702;2022-07-05T00:41:22;16.60;99.90
43151;DHT22;28755;51.478;5.702;2022-07-05T00:43:56;16.70;99.90
43151;DHT22;28755;51.478;5.702;2022-07-05T00:46:22;16.60;99.90
43151;DHT22;28755;51.478;5.702;2022-07-05T00:48:48;16.60;99.90
43151;DHT22;28755;51.478;5.702;2022-07-05T00:51:13;16.50;99.90
43151;DHT22;28755;51.478;5.702;2022-07-05T00:53:39;16.50;99.90
43151;DHT22;28755;51.478;5.702;2022-07-05T00:56:06;16.50;99.90
43151;DHT22;28755;51.478;5.702;2022-07-05T00:58:32;16.50;99.90
43151;DHT22;28755;51.478;5.702;2022-07-05T01:00:59;16.40;99.90
43151;DHT22;28755;51.478;5.702;2022-07-05T01:03:27;16.40;99.90
43151;DHT22;28755;51.478;5.702;2022-07-05T01:05:53;16.40;99.90
43151;DHT22;28755;51.478;5.702;2022-07-05T01:08:19;16.40;99.90
43151;DHT22;28755;51.478;5.702;2022-07-05T01:10:46;16.20;99.90
43151;DHT22;28755;51.478;5.702;2022-07-05T01:13:13;16.20;99.90
43151;DHT22;28755;51.478;5.702;2022-07-05T01:15:38;16.30;99.90
43151;DHT22;28755;51.478;5.702;2022-07-05T01:18:05;16.30;99.90
43151;DHT22;28755;51.478;5.702;2022-07-05T01:20:31;16.20;99.90
43151;DHT22;28755;51.478;5.702;2022-07-05T01:22:57;16.10;99.90
43151;DHT22;28755;51.478;5.702;2022-07-05T01:25:28;16.00;99.90
43151;DHT22;28755;51.478;5.702;2022-07-05T01:27:56;15.90;99.90
43151;DHT22;28755;51.478;5.702;2022-07-05T01:30:22;16.00;99.90
43151;DHT22;28755;51.478;5.702;2022-07-05T01:32:47;15.90;99.90
43151;DHT22;28755;51.478;5.702;2022-07-05T01:35:14;15.80;99.90
43151;DHT22;28755;51.478;5.702;2022-07-05T01:37:46;15.80;99.90
43151;DHT22;28755;51.478;5.702;2022-07-05T01:40:12;15.80;99.90
43151;DHT22;28755;51.478;5.702;2022-07-05T01:42:38;15.80;99.90
43151;DHT22;28755;51.478;5.702;2022-07-05T01:45:05;15.70;99.90
43151;DHT22;28755;51.478;5.702;2022-07-05T01:47:34;15.60;99.90
43151;DHT22;28755;51.478;5.702;2022-07-05T01:50:02;15.70;99.90
43151;DHT22;28755;51.478;5.702;2022-07-05T01:52:30;15.70;99.90
43151;DHT22;28755;51.478;5.702;2022-07-05T01:54:58;15.70;99.90
43151;DHT22;28755;51.478;5.702;2022-07-05T01:57:23;15.60;99.90
43151;DHT22;28755;51.478;5.702;2022-07-05T01:59:49;15.50;99.90
43151;DHT22;28755;51.478;5.702;2022-07-05T02:02:14;15.40;99.90
43151;DHT22;28755;51.478;5.702;2022-07-05T02:04:41;15.20;99.90
43151;DHT22;28755;51.478;5.702;2022-07-05T02:07:08;15.20;99.90
43151;DHT22;28755;51.478;5.702;2022-07-05T02:09:34;15.20;99.90
43151;DHT22;28755;51.478;5.702;2022-07-05T02:12:01;15.20;99.90
43151;DHT22;28755;51.478;5.702;2022-07-05T02:14:27;15.20;99.90
43151;DHT22;28755;51.478;5.702;2022-07-05T02:16:53;15.20;99.90
43151;DHT22;28755;51.478;5.702;2022-07-05T02:19:19;15.20;99.90
43151;DHT22;28755;51.478;5.702;2022-07-05T02:21:44;15.20;99.90
43151;DHT22;28755;51.478;5.702;2022-07-05T02:24:10;15.10;99.90
43151;DHT22;28755;51.478;5.702;2022-07-05T02:26:36;15.20;99.90
43151;DHT22;28755;51.478;5.702;2022-07-05T02:29:03;15.10;99.90
43151;DHT22;28755;51.478;5.702;2022-07-05T02:31:29;15.10;99.90
43151;DHT22;28755;51.478;5.702;2022-07-05T02:33:55;15.10;99.90
43151;DHT22;28755;51.478;5.702;2022-07-05T02:36:20;15.00;99.90
43151;DHT22;28755;51.478;5.702;2022-07-05T02:38:46;15.00;99.90
43151;DHT22;28755;51.478;5.702;2022-07-05T02:41:12;15.00;99.90
43151;DHT22;28755;51.478;5.702;2022-07-05T02:43:39;14.90;99.90
43151;DHT22;28755;51.478;5.702;2022-07-05T02:46:06;14.80;99.90
43151;DHT22;28755;51.478;5.702;2022-07-05T02:48:33;14.80;99.90
43151;DHT22;28755;51.478;5.702;2022-07-05T02:50:59;14.70;99.90
43151;DHT22;28755;51.478;5.702;2022-07-05T02:53:25;14.80;99.90
43151;DHT22;28755;51.478;5.702;2022-07-05T02:55:50;14.80;99.90
43151;DHT22;28755;51.478;5.702;2022-07-05T02:58:16;14.80;99.90
43151;DHT22;28755;51.478;5.702;2022-07-05T03:00:46;14.80;99.90
43151;DHT22;28755;51.478;5.702;2022-07-05T03:03:13;14.90;99.90
43151;DHT22;28755;51.478;5.702;2022-07-05T03:05:38;14.90;99.90
43151;DHT22;28755;51.478;5.702;2022-07-05T03:08:04;14.80;99.90
43151;DHT22;28755;51.478;5.702;2022-07-05T03:10:30;14.80;99.90
43151;DHT22;28755;51.478;5.702;2022-07-05T03:12:56;14.80;99.90
43151;DHT22;28755;51.478;5.702;2022-07-05T03:15:22;14.70;99.90
43151;DHT22;28755;51.478;5.702;2022-07-05T03:17:47;14.80;99.90
43151;DHT22;28755;51.478;5.702;2022-07-05T03:20:13;14.80;99.90
43151;DHT22;28755;51.478;5.702;2022-07-05T03:22:39;14.70;99.90
43151;DHT22;28755;51.478;5.702;2022-07-05T03:25:05;14.70;99.90
43151;DHT22;28755;51.478;5.702;2022-07-05T03:27:31;14.60;99.90
43151;DHT22;28755;51.478;5.702;2022-07-05T03:29:56;14.50;99.90
43151;DHT22;28755;51.478;5.702;2022-07-05T03:32:22;14.40;99.90
43151;DHT22;28755;51.478;5.702;2022-07-05T03:34:48;14.40;99.90
43151;DHT22;28755;51.478;5.702;2022-07-05T03:37:13;14.30;99.90
43151;DHT22;28755;51.478;5.702;2022-07-05T03:39:39;14.30;99.90
43151;DHT22;28755;51.478;5.702;2022-07-05T03:42:07;14.40;99.90
43151;DHT22;28755;51.478;5.702;2022-07-05T03:44:32;14.50;99.90
43151;DHT22;28755;51.478;5.702;2022-07-05T03:47:01;14.60;99.90
43151;DHT22;28755;51.478;5.702;2022-07-05T03:49:27;14.60;99.90
43151;DHT22;28755;51.478;5.702;2022-07-05T03:51:53;14.70;99.90
43151;DHT22;28755;51.478;5.702;2022-07-05T03:54:18;14.70;99.90
43151;DHT22;28755;51.478;5.702;2022-07-05T03:56:44;14.80;99.90
43151;DHT22;28755;51.478;5.702;2022-07-05T03:59:09;14.80;99.90
43151;DHT22;28755;51.478;5.702;2022-07-05T04:01:36;15.00;99.90
43151;DHT22;28755;51.478;5.702;2022-07-05T04:04:02;15.00;99.90
43151;DHT22;28755;51.478;5.702;2022-07-05T04:06:27;14.90;99.90
43151;DHT22;28755;51.478;5.702;2022-07-05T04:08:53;14.90;99.90
43151;DHT22;28755;51.478;5.702;2022-07-05T04:11:19;14.80;99.90
43151;DHT22;28755;51.478;5.702;2022-07-05T04:13:45;14.80;99.90
43151;DHT22;28755;51.478;5.702;2022-07-05T04:16:10;14.80;99.90
43151;DHT22;28755;51.478;5.702;2022-07-05T04:18:36;14.80;99.90
43151;DHT22;28755;51.478;5.702;2022-07-05T04:21:02;14.80;99.90
43151;DHT22;28755;51.478;5.702;2022-07-05T04:23:28;14.80;99.90
43151;DHT22;28755;51.478;5.702;2022-07-05T04:25:54;14.90;99.90
43151;DHT22;28755;51.478;5.702;2022-07-05T04:28:21;14.90;99.90
43151;DHT22;28755;51.478;5.702;2022-07-05T04:30:46;15.00;99.90
43151;DHT22;28755;51.478;5.702;2022-07-05T04:33:12;15.00;99.90
43151;DHT22;28755;51.478;5.702;2022-07-05T04:35:38;15.10;99.90
43151;DHT22;28755;51.478;5.702;2022-07-05T04:38:04;15.10;99.90
43151;DHT22;28755;51.478;5.702;2022-07-05T04:40:29;15.20;99.90
43151;DHT22;28755;51.478;5.702;2022-07-05T04:42:55;15.30;99.90
43151;DHT22;28755;51.478;5.702;2022-07-05T04:45:21;15.50;99.90
43151;DHT22;28755;51.478;5.702;2022-07-05T04:47:46;15.60;99.90
43151;DHT22;28755;51.478;5.702;2022-07-05T04:50:12;15.70;99.90
43151;DHT22;28755;51.478;5.702;2022-07-05T04:52:37;15.80;99.90
43151;DHT22;28755;51.478;5.702;2022-07-05T04:55:03;15.70;99.90
43151;DHT22;28755;51.478;5.702;2022-07-05T04:57:39;15.80;99.90
43151;DHT22;28755;51.478;5.702;2022-07-05T05:00:06;16.10;99.90
43151;DHT22;28755;51.478;5.702;2022-07-05T05:02:33;16.30;99.90
43151;DHT22;28755;51.478;5.702;2022-07-05T05:04:58;16.30;99.90
43151;DHT22;28755;51.478;5.702;2022-07-05T05:07:24;16.50;99.90
43151;DHT22;28755;51.478;5.702;2022-07-05T05:09:50;16.70;99.90
43151;DHT22;28755;51.478;5.702;2022-07-05T05:12:15;16.70;99.90
43151;DHT22;28755;51.478;5.702;2022-07-05T05:14:41;16.70;99.90
43151;DHT22;28755;51.478;5.702;2022-07-05T05:17:06;16.70;99.90
43151;DHT22;28755;51.478;5.702;2022-07-05T05:19:32;16.70;99.90
43151;DHT22;28755;51.478;5.702;2022-07-05T05:21:57;16.70;99.90
43151;DHT22;28755;51.478;5.702;2022-07-05T05:24:23;16.60;99.90
43151;DHT22;28755;51.478;5.702;2022-07-05T05:26:48;16.70;99.90
43151;DHT22;28755;51.478;5.702;2022-07-05T05:29:16;16.70;99.90
43151;DHT22;28755;51.478;5.702;2022-07-05T05:31:42;16.60;99.90
43151;DHT22;28755;51.478;5.702;2022-07-05T05:34:08;16.70;99.90
43151;DHT22;28755;51.478;5.702;2022-07-05T05:36:33;16.70;99.90
43151;DHT22;28755;51.478;5.702;2022-07-05T05:38:59;16.80;99.90
43151;DHT22;28755;51.478;5.702;2022-07-05T05:41:24;17.10;99.90
43151;DHT22;28755;51.478;5.702;2022-07-05T05:43:50;17.50;99.90
43151;DHT22;28755;51.478;5.702;2022-07-05T05:46:15;17.80;99.90
43151;DHT22;28755;51.478;5.702;2022-07-05T05:48:41;17.90;99.90
43151;DHT22;28755;51.478;5.702;2022-07-05T05:51:06;18.20;99.90
43151;DHT22;28755;51.478;5.702;2022-07-05T05:53:32;18.40;99.90
43151;DHT22;28755;51.478;5.702;2022-07-05T05:55:58;18.20;99.90
43151;DHT22;28755;51.478;5.702;2022-07-05T05:58:23;18.30;99.90
43151;DHT22;28755;51.478;5.702;2022-07-05T06:00:49;18.40;99.90
43151;DHT22;28755;51.478;5.702;2022-07-05T06:03:24;18.60;99.90
43151;DHT22;28755;51.478;5.702;2022-07-05T06:05:50;18.60;99.90
43151;DHT22;28755;51.478;5.702;2022-07-05T06:08:16;18.80;99.90
43151;DHT22;28755;51.478;5.702;2022-07-05T06:10:42;18.90;99.90
43151;DHT22;28755;51.478;5.702;2022-07-05T06:13:09;18.90;99.90
43151;DHT22;28755;51.478;5.702;2022-07-05T06:15:35;19.00;99.90
43151;DHT22;28755;51.478;5.702;2022-07-05T06:18:01;19.20;99.90
43151;DHT22;28755;51.478;5.702;2022-07-05T06:20:31;19.30;99.90
43151;DHT22;28755;51.478;5.702;2022-07-05T06:22:58;19.20;99.90
43151;DHT22;28755;51.478;5.702;2022-07-05T06:25:25;19.20;99.90
43151;DHT22;28755;51.478;5.702;2022-07-05T06:27:57;19.30;99.90
43151;DHT22;28755;51.478;5.702;2022-07-05T06:30:24;19.40;99.90
43151;DHT22;28755;51.478;5.702;2022-07-05T06:32:50;19.50;99.90
43151;DHT22;28755;51.478;5.702;2022-07-05T06:35:17;19.50;99.90
43151;DHT22;28755;51.478;5.702;2022-07-05T06:37:51;19.30;99.90
43151;DHT22;28755;51.478;5.702;2022-07-05T06:40:30;19.20;99.90
43151;DHT22;28755;51.478;5.702;2022-07-05T06:42:58;19.40;99.90
43151;DHT22;28755;51.478;5.702;2022-07-05T06:45:26;19.80;99.90
43151;DHT22;28755;51.478;5.702;2022-07-05T06:47:59;19.80;99.90
43151;DHT22;28755;51.478;5.702;2022-07-05T06:50:26;19.60;99.90
43151;DHT22;28755;51.478;5.702;2022-07-05T06:52:52;19.70;99.90
43151;DHT22;28755;51.478;5.702;2022-07-05T06:55:18;20.00;99.90
43151;DHT22;28755;51.478;5.702;2022-07-05T06:57:44;20.00;99.90
43151;DHT22;28755;51.478;5.702;2022-07-05T07:00:11;20.10;99.90
43151;DHT22;28755;51.478;5.702;2022-07-05T07:02:37;20.30;99.90
43151;DHT22;28755;51.478;5.702;2022-07-05T07:05:03;20.30;99.90
43151;DHT22;28755;51.478;5.702;2022-07-05T07:07:33;20.40;99.90
43151;DHT22;28755;51.478;5.702;2022-07-05T07:10:17;20.50;99.90
43151;DHT22;28755;51.478;5.702;2022-07-05T07:12:43;20.60;99.90
43151;DHT22;28755;51.478;5.702;2022-07-05T07:15:09;20.70;99.90
43151;DHT22;28755;51.478;5.702;2022-07-05T07:17:35;20.60;99.90
43151;DHT22;28755;51.478;5.702;2022-07-05T07:20:00;20.50;99.90
43151;DHT22;28755;51.478;5.702;2022-07-05T07:22:26;20.70;99.90
43151;DHT22;28755;51.478;5.702;2022-07-05T07:24:53;20.80;99.90
43151;DHT22;28755;51.478;5.702;2022-07-05T07:27:18;21.00;99.90
43151;DHT22;28755;51.478;5.702;2022-07-05T07:29:44;21.00;99.90
43151;DHT22;28755;51.478;5.702;2022-07-05T07:32:10;21.00;99.90
43151;DHT22;28755;51.478;5.702;2022-07-05T07:34:36;20.90;99.90
43151;DHT22;28755;51.478;5.702;2022-07-05T07:37:03;20.80;99.90
43151;DHT22;28755;51.478;5.702;2022-07-05T07:39:29;20.80;99.90
43151;DHT22;28755;51.478;5.702;2022-07-05T07:41:57;21.00;99.90
43151;DHT22;28755;51.478;5.702;2022-07-05T07:44:23;21.50;99.90
43151;DHT22;28755;51.478;5.702;2022-07-05T07:46:49;22.00;99.90
43151;DHT22;28755;51.478;5.702;2022-07-05T07:49:16;22.30;99.90
43151;DHT22;28755;51.478;5.702;2022-07-05T07:51:41;22.70;99.90
43151;DHT22;28755;51.478;5.702;2022-07-05T07:54:07;22.40;99.90
43151;DHT22;28755;51.478;5.702;2022-07-05T07:56:33;22.20;99.90
43151;DHT22;28755;51.478;5.702;2022-07-05T07:58:58;22.00;99.90
43151;DHT22;28755;51.478;5.702;2022-07-05T08:01:24;22.10;99.90
43151;DHT22;28755;51.478;5.702;2022-07-05T08:03:50;22.30;99.90
43151;DHT22;28755;51.478;5.702;2022-07-05T08:06:16;22.70;99.90
43151;DHT22;28755;51.478;5.702;2022-07-05T08:08:42;23.00;99.90
43151;DHT22;28755;51.478;5.702;2022-07-05T08:11:10;23.10;99.90
43151;DHT22;28755;51.478;5.702;2022-07-05T08:13:36;23.20;99.90
43151;DHT22;28755;51.478;5.702;2022-07-05T08:16:03;23.00;99.90
43151;DHT22;28755;51.478;5.702;2022-07-05T08:18:29;22.70;99.90
43151;DHT22;28755;51.478;5.702;2022-07-05T08:21:15;22.80;99.90
43151;DHT22;28755;51.478;5.702;2022-07-05T08:23:57;22.70;99.90
43151;DHT22;28755;51.478;5.702;2022-07-05T08:26:23;22.70;99.90
43151;DHT22;28755;51.478;5.702;2022-07-05T08:28:48;22.60;99.90
43151;DHT22;28755;51.478;5.702;2022-07-05T08:31:14;22.60;99.90
43151;DHT22;28755;51.478;5.702;2022-07-05T08:33:39;22.30;99.90
43151;DHT22;28755;51.478;5.702;2022-07-05T08:36:05;22.40;99.90
43151;DHT22;28755;51.478;5.702;2022-07-05T08:38:33;22.70;99.90
43151;DHT22;28755;51.478;5.702;2022-07-05T08:40:59;22.70;99.90
43151;DHT22;28755;51.478;5.702;2022-07-05T08:43:28;23.00;99.90
43151;DHT22;28755;51.478;5.702;2022-07-05T08:45:55;22.80;99.90
43151;DHT22;28755;51.478;5.702;2022-07-05T08:48:24;23.00;99.90
43151;DHT22;28755;51.478;5.702;2022-07-05T08:50:51;23.20;99.90
43151;DHT22;28755;51.478;5.702;2022-07-05T08:53:20;23.20;99.90
43151;DHT22;28755;51.478;5.702;2022-07-05T08:55:46;23.30;99.90
43151;DHT22;28755;51.478;5.702;2022-07-05T08:58:12;23.80;99.90
43151;DHT22;28755;51.478;5.702;2022-07-05T09:00:39;24.10;99.90
43151;DHT22;28755;51.478;5.702;2022-07-05T09:03:06;24.60;99.90
43151;DHT22;28755;51.478;5.702;2022-07-05T09:05:44;24.40;99.90
43151;DHT22;28755;51.478;5.702;2022-07-05T09:08:13;24.30;99.90
43151;DHT22;28755;51.478;5.702;2022-07-05T09:10:42;24.30;99.90
43151;DHT22;28755;51.478;5.702;2022-07-05T09:13:08;24.30;99.90
43151;DHT22;28755;51.478;5.702;2022-07-05T09:15:38;24.60;99.90
43151;DHT22;28755;51.478;5.702;2022-07-05T09:18:04;25.00;99.90
43151;DHT22;28755;51.478;5.702;2022-07-05T09:20:30;24.50;99.90
43151;DHT22;28755;51.478;5.702;2022-07-05T09:22:56;24.90;99.90
43151;DHT22;28755;51.478;5.702;2022-07-05T09:25:26;24.60;99.90
43151;DHT22;28755;51.478;5.702;2022-07-05T09:27:59;24.00;99.90
43151;DHT22;28755;51.478;5.702;2022-07-05T09:30:39;23.60;99.90
43151;DHT22;28755;51.478;5.702;2022-07-05T09:33:15;23.50;99.90
43151;DHT22;28755;51.478;5.702;2022-07-05T09:35:43;23.50;99.90
43151;DHT22;28755;51.478;5.702;2022-07-05T09:38:21;23.30;99.90
43151;DHT22;28755;51.478;5.702;2022-07-05T09:40:55;23.00;99.90
43151;DHT22;28755;51.478;5.702;2022-07-05T09:43:23;23.10;99.90
43151;DHT22;28755;51.478;5.702;2022-07-05T09:46:02;23.60;99.90
43151;DHT22;28755;51.478;5.702;2022-07-05T09:48:32;24.70;99.90
43151;DHT22;28755;51.478;5.702;2022-07-05T09:51:09;25.60;99.90
43151;DHT22;28755;51.478;5.702;2022-07-05T09:54:04;25.80;99.90
43151;DHT22;28755;51.478;5.702;2022-07-05T09:56:30;26.00;99.90
43151;DHT22;28755;51.478;5.702;2022-07-05T09:59:15;26.20;99.90
43151;DHT22;28755;51.478;5.702;2022-07-05T10:01:41;26.30;99.90
43151;DHT22;28755;51.478;5.702;2022-07-05T10:04:08;26.30;99.90
43151;DHT22;28755;51.478;5.702;2022-07-05T10:06:34;26.10;98.00
43151;DHT22;28755;51.478;5.702;2022-07-05T10:09:00;25.70;98.20
43151;DHT22;28755;51.478;5.702;2022-07-05T10:11:26;25.70;97.80
43151;DHT22;28755;51.478;5.702;2022-07-05T10:13:55;25.40;98.50
43151;DHT22;28755;51.478;5.702;2022-07-05T10:16:23;25.30;99.50
43151;DHT22;28755;51.478;5.702;2022-07-05T10:18:54;26.20;99.10
43151;DHT22;28755;51.478;5.702;2022-07-05T10:21:20;27.70;98.10
43151;DHT22;28755;51.478;5.702;2022-07-05T10:23:50;27.90;96.70
43151;DHT22;28755;51.478;5.702;2022-07-05T10:26:19;28.00;96.00
43151;DHT22;28755;51.478;5.702;2022-07-05T10:28:48;28.10;95.30
43151;DHT22;28755;51.478;5.702;2022-07-05T10:31:16;28.50;94.90
43151;DHT22;28755;51.478;5.702;2022-07-05T10:33:42;28.90;94.40
43151;DHT22;28755;51.478;5.702;2022-07-05T10:36:10;28.50;94.00
43151;DHT22;28755;51.478;5.702;2022-07-05T10:38:42;28.00;94.20
43151;DHT22;28755;51.478;5.702;2022-07-05T10:41:10;26.90;93.90
43151;DHT22;28755;51.478;5.702;2022-07-05T10:43:36;25.90;94.50
43151;DHT22;28755;51.478;5.702;2022-07-05T10:46:02;25.40;95.30
43151;DHT22;28755;51.478;5.702;2022-07-05T10:48:32;25.20;95.50
43151;DHT22;28755;51.478;5.702;2022-07-05T10:51:16;25.00;95.70
43151;DHT22;28755;51.478;5.702;2022-07-05T10:58:45;24.50;96.70
43151;DHT22;28755;51.478;5.702;2022-07-05T11:03:48;24.20;96.30
43151;DHT22;28755;51.478;5.702;2022-07-05T11:06:22;24.60;96.80
43151;DHT22;28755;51.478;5.702;2022-07-05T11:11:27;24.20;97.20
43151;DHT22;28755;51.478;5.702;2022-07-05T11:13:53;24.00;97.80
43151;DHT22;28755;51.478;5.702;2022-07-05T11:18:45;23.60;99.10
43151;DHT22;28755;51.478;5.702;2022-07-05T11:21:21;23.50;99.90
43151;DHT22;28755;51.478;5.702;2022-07-05T11:23:47;24.10;99.40
43151;DHT22;28755;51.478;5.702;2022-07-05T11:26:17;24.70;99.40
43151;DHT22;28755;51.478;5.702;2022-07-05T11:28:46;26.60;98.70
43151;DHT22;28755;51.478;5.702;2022-07-05T11:31:38;28.00;97.80
43151;DHT22;28755;51.478;5.702;2022-07-05T11:34:15;29.50;95.50
43151;DHT22;28755;51.478;5.702;2022-07-05T11:36:42;29.50;95.00
43151;DHT22;28755;51.478;5.702;2022-07-05T11:41:34;29.80;94.40
43151;DHT22;28755;51.478;5.702;2022-07-05T11:44:02;28.50;94.20
43151;DHT22;28755;51.478;5.702;2022-07-05T11:46:28;27.80;94.90
43151;DHT22;28755;51.478;5.702;2022-07-05T11:48:55;27.10;95.30
43151;DHT22;28755;51.478;5.702;2022-07-05T11:51:21;25.60;95.80
43151;DHT22;28755;51.478;5.702;2022-07-05T11:53:46;25.20;97.00
43151;DHT22;28755;51.478;5.702;2022-07-05T11:56:12;24.70;97.60
43151;DHT22;28755;51.478;5.702;2022-07-05T11:58:38;24.60;98.30
43151;DHT22;28755;51.478;5.702;2022-07-05T12:01:03;24.20;98.80
43151;DHT22;28755;51.478;5.702;2022-07-05T12:03:31;23.80;99.20
43151;DHT22;28755;51.478;5.702;2022-07-05T12:05:57;23.50;99.20
43151;DHT22;28755;51.478;5.702;2022-07-05T12:08:23;23.30;99.30
43151;DHT22;28755;51.478;5.702;2022-07-05T12:10:49;23.30;99.50
43151;DHT22;28755;51.478;5.702;2022-07-05T12:13:48;23.20;99.40
43151;DHT22;28755;51.478;5.702;2022-07-05T12:16:14;23.40;99.30
43151;DHT22;28755;51.478;5.702;2022-07-05T12:19:06;23.60;99.20
43151;DHT22;28755;51.478;5.702;2022-07-05T12:21:32;23.30;99.50
43151;DHT22;28755;51.478;5.702;2022-07-05T12:23:57;23.70;99.20
43151;DHT22;28755;51.478;5.702;2022-07-05T12:26:23;24.00;99.20
43151;DHT22;28755;51.478;5.702;2022-07-05T12:28:49;24.70;98.40
43151;DHT22;28755;51.478;5.702;2022-07-05T12:33:41;24.90;98.20
43151;DHT22;28755;51.478;5.702;2022-07-05T12:36:11;25.30;97.90
43151;DHT22;28755;51.478;5.702;2022-07-05T12:38:37;25.30;97.40
43151;DHT22;28755;51.478;5.702;2022-07-05T12:41:03;25.30;97.30
43151;DHT22;28755;51.478;5.702;2022-07-05T12:43:28;24.80;97.30
43151;DHT22;28755;51.478;5.702;2022-07-05T12:46:05;24.90;97.20
43151;DHT22;28755;51.478;5.702;2022-07-05T12:48:32;25.20;96.10
43151;DHT22;28755;51.478;5.702;2022-07-05T12:50:58;25.20;96.60
43151;DHT22;28755;51.478;5.702;2022-07-05T12:53:24;25.40;95.90
43151;DHT22;28755;51.478;5.702;2022-07-05T12:56:10;25.30;95.40
43151;DHT22;28755;51.478;5.702;2022-07-05T12:58:56;25.20;95.50
43151;DHT22;28755;51.478;5.702;2022-07-05T13:01:27;24.40;96.80
43151;DHT22;28755;51.478;5.702;2022-07-05T13:04:10;24.10;97.40
43151;DHT22;28755;51.478;5.702;2022-07-05T13:06:44;23.80;97.90
43151;DHT22;28755;51.478;5.702;2022-07-05T13:09:11;23.40;98.20
43151;DHT22;28755;51.478;5.702;2022-07-05T13:11:38;23.30;98.70
43151;DHT22;28755;51.478;5.702;2022-07-05T13:14:03;23.70;98.70
43151;DHT22;28755;51.478;5.702;2022-07-05T13:16:29;23.50;98.00
43151;DHT22;28755;51.478;5.702;2022-07-05T13:18:55;23.60;98.60
43151;DHT22;28755;51.478;5.702;2022-07-05T13:21:30;23.70;98.50
43151;DHT22;28755;51.478;5.702;2022-07-05T13:23:56;23.60;98.50
43151;DHT22;28755;51.478;5.702;2022-07-05T13:26:21;23.70;98.10
43151;DHT22;28755;51.478;5.702;2022-07-05T13:28:48;23.80;98.50
43151;DHT22;28755;51.478;5.702;2022-07-05T13:31:13;23.90;98.00
43151;DHT22;28755;51.478;5.702;2022-07-05T13:33:39;24.10;98.10
43151;DHT22;28755;51.478;5.702;2022-07-05T13:36:05;24.50;97.70
43151;DHT22;28755;51.478;5.702;2022-07-05T13:38:30;24.80;97.30
43151;DHT22;28755;51.478;5.702;2022-07-05T13:40:56;25.00;97.40
43151;DHT22;28755;51.478;5.702;2022-07-05T13:43:21;25.20;97.20
43151;DHT22;28755;51.478;5.702;2022-07-05T13:45:47;25.20;96.70
43151;DHT22;28755;51.478;5.702;2022-07-05T13:48:12;24.50;96.70
43151;DHT22;28755;51.478;5.702;2022-07-05T13:50:38;24.00;97.30
43151;DHT22;28755;51.478;5.702;2022-07-05T13:53:04;23.80;98.40
43151;DHT22;28755;51.478;5.702;2022-07-05T13:55:29;24.00;98.20
43151;DHT22;28755;51.478;5.702;2022-07-05T13:57:55;23.80;98.00
43151;DHT22;28755;51.478;5.702;2022-07-05T14:00:23;23.50;97.80
43151;DHT22;28755;51.478;5.702;2022-07-05T14:02:48;23.40;98.40
43151;DHT22;28755;51.478;5.702;2022-07-05T14:05:14;23.30;98.10
43151;DHT22;28755;51.478;5.702;2022-07-05T14:07:42;23.50;98.40
43151;DHT22;28755;51.478;5.702;2022-07-05T14:10:07;23.60;98.40
43151;DHT22;28755;51.478;5.702;2022-07-05T14:12:33;24.00;98.20
43151;DHT22;28755;51.478;5.702;2022-07-05T14:14:59;24.00;98.30
43151;DHT22;28755;51.478;5.702;2022-07-05T14:17:24;23.80;98.40
43151;DHT22;28755;51.478;5.702;2022-07-05T14:19:50;23.80;98.70
43151;DHT22;28755;51.478;5.702;2022-07-05T14:22:15;24.00;98.90
43151;DHT22;28755;51.478;5.702;2022-07-05T14:24:41;23.70;98.40
43151;DHT22;28755;51.478;5.702;2022-07-05T14:27:06;23.70;98.60
43151;DHT22;28755;51.478;5.702;2022-07-05T14:29:34;23.60;98.50
43151;DHT22;28755;51.478;5.702;2022-07-05T14:32:00;23.80;98.80
43151;DHT22;28755;51.478;5.702;2022-07-05T14:34:26;23.80;98.80
43151;DHT22;28755;51.478;5.702;2022-07-05T14:36:54;23.70;98.60
43151;DHT22;28755;51.478;5.702;2022-07-05T14:39:19;23.80;98.60
43151;DHT22;28755;51.478;5.702;2022-07-05T14:41:46;24.00;98.40
43151;DHT22;28755;51.478;5.702;2022-07-05T14:44:11;24.30;98.20
43151;DHT22;28755;51.478;5.702;2022-07-05T14:46:37;24.40;97.70
43151;DHT22;28755;51.478;5.702;2022-07-05T14:49:02;24.00;97.50
43151;DHT22;28755;51.478;5.702;2022-07-05T14:51:28;23.70;98.10
43151;DHT22;28755;51.478;5.702;2022-07-05T14:53:53;23.40;98.10
43151;DHT22;28755;51.478;5.702;2022-07-05T14:56:19;23.40;98.60
43151;DHT22;28755;51.478;5.702;2022-07-05T14:58:45;23.50;98.30
43151;DHT22;28755;51.478;5.702;2022-07-05T15:01:11;23.70;98.30
43151;DHT22;28755;51.478;5.702;2022-07-05T15:03:36;23.10;98.10
43151;DHT22;28755;51.478;5.702;2022-07-05T15:06:02;23.10;98.30
43151;DHT22;28755;51.478;5.702;2022-07-05T15:08:29;22.90;98.70
43151;DHT22;28755;51.478;5.702;2022-07-05T15:10:54;23.00;98.40
43151;DHT22;28755;51.478;5.702;2022-07-05T15:13:20;23.20;98.50
43151;DHT22;28755;51.478;5.702;2022-07-05T15:15:46;23.30;97.90
43151;DHT22;28755;51.478;5.702;2022-07-05T15:18:12;23.30;98.10
43151;DHT22;28755;51.478;5.702;2022-07-05T15:20:37;23.20;97.70
43151;DHT22;28755;51.478;5.702;2022-07-05T15:23:03;23.50;98.10
43151;DHT22;28755;51.478;5.702;2022-07-05T15:25:29;23.60;97.50
43151;DHT22;28755;51.478;5.702;2022-07-05T15:27:54;23.80;97.40
43151;DHT22;28755;51.478;5.702;2022-07-05T15:30:20;23.80;97.10
43151;DHT22;28755;51.478;5.702;2022-07-05T15:32:48;23.50;97.10
43151;DHT22;28755;51.478;5.702;2022-07-05T15:35:13;23.60;97.20
43151;DHT22;28755;51.478;5.702;2022-07-05T15:37:41;23.50;97.00
43151;DHT22;28755;51.478;5.702;2022-07-05T15:40:07;23.40;97.00
43151;DHT22;28755;51.478;5.702;2022-07-05T15:42:33;22.90;97.60
43151;DHT22;28755;51.478;5.702;2022-07-05T15:44:59;23.20;97.30
43151;DHT22;28755;51.478;5.702;2022-07-05T15:47:24;23.20;97.30
43151;DHT22;28755;51.478;5.702;2022-07-05T15:49:52;23.20;97.50